sensor_id;sensor_type;location;lat;lon;timestamp;pressure;altitude;pressure_sealevel;temperature;humidity
46614;BME280;32338;50.430;6.806;2022-07-29T00:00:26;96666.31;;;15.73;83.93
46614;BME280;32338;50.430;6.806;2022-07-29T00:02:53;96662.03;;;15.72;83.24
46614;BME280;32338;50.430;6.806;2022-07-29T00:05:19;96652.88;;;15.68;83.14
46614;BME280;32338;50.430;6.806;2022-07-29T00:07:46;96650.06;;;15.63;83.17
46614;BME280;32338;50.430;6.806;2022-07-29T00:10:13;96649.03;;;15.64;82.72
46614;BME280;32338;50.430;6.806;2022-07-29T00:12:39;96645.09;;;15.66;83.29
46614;BME280;32338;50.430;6.806;2022-07-29T00:15:08;96643.72;;;15.64;85.63
46614;BME280;32338;50.430;6.806;2022-07-29T00:17:34;96638.94;;;15.66;85.65
46614;BME280;32338;50.430;6.806;2022-07-29T00:20:01;96642.50;;;15.60;86.59
46614;BME280;32338;50.430;6.806;2022-07-29T00:22:28;96626.75;;;15.58;86.89
46614;BME280;32338;50.430;6.806;2022-07-29T00:24:54;96626.38;;;15.54;87.11
46614;BME280;32338;50.430;6.806;2022-07-29T00:27:21;96624.38;;;15.50;86.13
46614;BME280;32338;50.430;6.806;2022-07-29T00:29:48;96629.38;;;15.46;85.62
46614;BME280;32338;50.430;6.806;2022-07-29T00:32:16;96625.97;;;15.39;84.44
46614;BME280;32338;50.430;6.806;2022-07-29T00:34:42;96618.91;;;15.45;86.71
46614;BME280;32338;50.430;6.806;2022-07-29T00:37:27;96622.19;;;15.47;87.77
46614;BME280;32338;50.430;6.806;2022-07-29T00:39:53;96618.72;;;15.46;87.71
46614;BME280;32338;50.430;6.806;2022-07-29T00:42:20;96609.47;;;15.49;88.34
46614;BME280;32338;50.430;6.806;2022-07-29T00:44:47;96610.50;;;15.48;88.75
46614;BME280;32338;50.430;6.806;2022-07-29T00:47:13;96610.94;;;15.45;87.88
46614;BME280;32338;50.430;6.806;2022-07-29T00:49:42;96604.91;;;15.37;87.73
46614;BME280;32338;50.430;6.806;2022-07-29T00:52:10;96603.63;;;15.40;88.24
46614;BME280;32338;50.430;6.806;2022-07-29T00:54:38;96596.22;;;15.42;88.36
46614;BME280;32338;50.430;6.806;2022-07-29T00:57:05;96609.41;;;15.37;88.67
46614;BME280;32338;50.430;6.806;2022-07-29T00:59:32;96609.63;;;15.35;89.82
46614;BME280;32338;50.430;6.806;2022-07-29T01:01:59;96604.06;;;15.37;89.31
46614;BME280;32338;50.430;6.806;2022-07-29T01:04:26;96603.50;;;15.35;90.64
46614;BME280;32338;50.430;6.806;2022-07-29T01:06:56;96600.25;;;15.33;88.61
46614;BME280;32338;50.430;6.806;2022-07-29T01:09:23;96597.56;;;15.33;88.70
46614;BME280;32338;50.430;6.806;2022-07-29T01:11:50;96607.19;;;15.34;88.25
46614;BME280;32338;50.430;6.806;2022-07-29T01:14:17;96597.66;;;15.26;86.63
46614;BME280;32338;50.430;6.806;2022-07-29T01:16:51;96598.69;;;15.25;87.82
46614;BME280;32338;50.430;6.806;2022-07-29T01:19:35;96593.22;;;15.20;89.07
46614;BME280;32338;50.430;6.806;2022-07-29T01:22:27;96583.25;;;15.15;88.85
46614;BME280;32338;50.430;6.806;2022-07-29T01:25:09;96585.38;;;15.06;89.71
46614;BME280;32338;50.430;6.806;2022-07-29T01:27:47;96586.69;;;14.97;90.63
46614;BME280;32338;50.430;6.806;2022-07-29T01:30:18;96575.84;;;14.99;91.80
46614;BME280;32338;50.430;6.806;2022-07-29T01:32:50;96584.34;;;14.89;91.04
46614;BME280;32338;50.430;6.806;2022-07-29T01:35:23;96581.06;;;14.87;91.31
46614;BME280;32338;50.430;6.806;2022-07-29T01:37:55;96571.59;;;14.91;91.60
46614;BME280;32338;50.430;6.806;2022-07-29T01:40:27;96574.38;;;15.03;90.64
46614;BME280;32338;50.430;6.806;2022-07-29T01:42:57;96579.28;;;14.81;92.21
46614;BME280;32338;50.430;6.806;2022-07-29T01:45:30;96581.53;;;14.84;92.72
46614;BME280;32338;50.430;6.806;2022-07-29T01:48:00;96569.63;;;14.86;92.01
46614;BME280;32338;50.430;6.806;2022-07-29T01:50:33;96575.22;;;14.78;91.07
46614;BME280;32338;50.430;6.806;2022-07-29T01:53:04;96579.38;;;14.74;93.06
46614;BME280;32338;50.430;6.806;2022-07-29T01:55:35;96573.66;;;14.70;92.33
46614;BME280;32338;50.430;6.806;2022-07-29T01:58:04;96577.13;;;14.71;91.74
46614;BME280;32338;50.430;6.806;2022-07-29T02:00:34;96571.66;;;14.66;93.57
46614;BME280;32338;50.430;6.806;2022-07-29T02:03:05;96561.66;;;14.61;95.60
46614;BME280;32338;50.430;6.806;2022-07-29T02:05:34;96563.84;;;14.71;92.31
46614;BME280;32338;50.430;6.806;2022-07-29T02:08:02;96551.22;;;14.59;91.76
46614;BME280;32338;50.430;6.806;2022-07-29T02:10:32;96562.16;;;14.51;92.67
46614;BME280;32338;50.430;6.806;2022-07-29T02:13:02;96566.78;;;14.37;94.39
46614;BME280;32338;50.430;6.806;2022-07-29T02:15:31;96558.44;;;14.34;94.31
46614;BME280;32338;50.430;6.806;2022-07-29T02:18:01;96551.78;;;14.43;92.62
46614;BME280;32338;50.430;6.806;2022-07-29T02:20:29;96556.53;;;14.41;93.43
46614;BME280;32338;50.430;6.806;2022-07-29T02:22:58;96560.06;;;14.35;93.36
46614;BME280;32338;50.430;6.806;2022-07-29T02:25:26;96557.06;;;14.24;92.14
46614;BME280;32338;50.430;6.806;2022-07-29T02:27:54;96558.44;;;14.08;93.41
46614;BME280;32338;50.430;6.806;2022-07-29T02:30:23;96567.31;;;14.21;94.26
46614;BME280;32338;50.430;6.806;2022-07-29T02:32:50;96571.41;;;14.23;94.06
46614;BME280;32338;50.430;6.806;2022-07-29T02:35:20;96566.34;;;14.15;94.81
46614;BME280;32338;50.430;6.806;2022-07-29T02:37:48;96571.19;;;14.18;93.82
46614;BME280;32338;50.430;6.806;2022-07-29T02:40:37;96576.34;;;14.13;95.31
46614;BME280;32338;50.430;6.806;2022-07-29T02:43:05;96576.34;;;14.13;94.74
46614;BME280;32338;50.430;6.806;2022-07-29T02:45:33;96567.97;;;14.16;93.87
46614;BME280;32338;50.430;6.806;2022-07-29T02:48:04;96567.41;;;14.07;93.89
46614;BME280;32338;50.430;6.806;2022-07-29T02:50:35;96565.78;;;14.06;95.11
46614;BME280;32338;50.430;6.806;2022-07-29T02:53:07;96569.31;;;14.00;94.32
46614;BME280;32338;50.430;6.806;2022-07-29T02:55:38;96566.47;;;13.95;94.68
46614;BME280;32338;50.430;6.806;2022-07-29T02:58:13;96560.56;;;13.93;95.91
46614;BME280;32338;50.430;6.806;2022-07-29T03:00:41;96554.44;;;13.92;97.08
46614;BME280;32338;50.430;6.806;2022-07-29T03:03:13;96560.78;;;13.91;95.89
46614;BME280;32338;50.430;6.806;2022-07-29T03:05:42;96561.63;;;13.85;96.26
46614;BME280;32338;50.430;6.806;2022-07-29T03:08:11;96557.78;;;13.81;95.53
46614;BME280;32338;50.430;6.806;2022-07-29T03:10:39;96550.22;;;13.78;95.85
46614;BME280;32338;50.430;6.806;2022-07-29T03:13:09;96549.66;;;13.76;95.31
46614;BME280;32338;50.430;6.806;2022-07-29T03:15:38;96550.84;;;13.80;95.31
46614;BME280;32338;50.430;6.806;2022-07-29T03:18:05;96548.59;;;13.77;95.41
46614;BME280;32338;50.430;6.806;2022-07-29T03:20:32;96549.44;;;13.71;96.24
46614;BME280;32338;50.430;6.806;2022-07-29T03:23:00;96552.31;;;13.76;97.65
46614;BME280;32338;50.430;6.806;2022-07-29T03:25:26;96543.13;;;13.72;97.62
46614;BME280;32338;50.430;6.806;2022-07-29T03:27:53;96538.66;;;13.72;97.15
46614;BME280;32338;50.430;6.806;2022-07-29T03:30:20;96548.19;;;13.80;97.45
46614;BME280;32338;50.430;6.806;2022-07-29T03:32:46;96547.63;;;13.71;97.09
46614;BME280;32338;50.430;6.806;2022-07-29T03:35:13;96539.22;;;13.74;98.84
46614;BME280;32338;50.430;6.806;2022-07-29T03:37:41;96539.84;;;13.76;96.02
46614;BME280;32338;50.430;6.806;2022-07-29T03:40:12;96538.19;;;13.75;96.92
46614;BME280;32338;50.430;6.806;2022-07-29T03:42:42;96542.94;;;13.73;96.61
46614;BME280;32338;50.430;6.806;2022-07-29T03:45:17;96538.66;;;13.66;95.87
46614;BME280;32338;50.430;6.806;2022-07-29T03:47:48;96546.69;;;13.59;96.93
46614;BME280;32338;50.430;6.806;2022-07-29T03:50:17;96546.75;;;13.45;97.74
46614;BME280;32338;50.430;6.806;2022-07-29T03:52:46;96556.97;;;13.42;99.88
46614;BME280;32338;50.430;6.806;2022-07-29T03:55:15;96546.97;;;13.44;98.68
46614;BME280;32338;50.430;6.806;2022-07-29T03:57:44;96554.31;;;13.42;98.07
46614;BME280;32338;50.430;6.806;2022-07-29T04:00:12;96552.25;;;13.44;96.79
46614;BME280;32338;50.430;6.806;2022-07-29T04:02:40;96549.63;;;13.44;96.05
46614;BME280;32338;50.430;6.806;2022-07-29T04:05:11;96552.25;;;13.44;95.57
46614;BME280;32338;50.430;6.806;2022-07-29T04:07:38;96557.41;;;13.39;96.09
46614;BME280;32338;50.430;6.806;2022-07-29T04:10:06;96553.13;;;13.31;96.89
46614;BME280;32338;50.430;6.806;2022-07-29T04:12:34;96551.88;;;13.34;98.74
46614;BME280;32338;50.430;6.806;2022-07-29T04:15:01;96554.94;;;13.30;98.43
46614;BME280;32338;50.430;6.806;2022-07-29T04:17:27;96560.44;;;13.36;99.58
46614;BME280;32338;50.430;6.806;2022-07-29T04:19:54;96565.56;;;13.37;98.81
46614;BME280;32338;50.430;6.806;2022-07-29T04:22:21;96565.38;;;13.25;99.04
46614;BME280;32338;50.430;6.806;2022-07-29T04:24:47;96569.66;;;13.26;100.00
46614;BME280;32338;50.430;6.806;2022-07-29T04:27:14;96570.72;;;13.12;96.97
46614;BME280;32338;50.430;6.806;2022-07-29T04:29:42;96572.97;;;13.15;98.96
46614;BME280;32338;50.430;6.806;2022-07-29T04:32:08;96570.94;;;13.10;99.36
46614;BME280;32338;50.430;6.806;2022-07-29T04:34:35;96578.09;;;13.10;100.00
46614;BME280;32338;50.430;6.806;2022-07-29T04:37:01;96583.97;;;13.19;99.76
46614;BME280;32338;50.430;6.806;2022-07-29T04:39:28;96588.66;;;13.23;99.46
46614;BME280;32338;50.430;6.806;2022-07-29T04:41:55;96589.66;;;13.29;99.63
46614;BME280;32338;50.430;6.806;2022-07-29T04:44:21;96597.41;;;13.37;99.33
46614;BME280;32338;50.430;6.806;2022-07-29T04:46:49;96601.22;;;13.48;99.67
46614;BME280;32338;50.430;6.806;2022-07-29T04:49:16;96598.00;;;13.46;98.64
46614;BME280;32338;50.430;6.806;2022-07-29T04:51:43;96597.59;;;13.42;98.24
46614;BME280;32338;50.430;6.806;2022-07-29T04:54:09;96607.38;;;13.42;99.02
46614;BME280;32338;50.430;6.806;2022-07-29T04:56:36;96612.28;;;13.45;100.00
46614;BME280;32338;50.430;6.806;2022-07-29T04:59:02;96606.94;;;13.52;100.00
46614;BME280;32338;50.430;6.806;2022-07-29T05:01:29;96613.47;;;13.56;100.00
46614;BME280;32338;50.430;6.806;2022-07-29T05:03:57;96615.66;;;13.66;100.00
46614;BME280;32338;50.430;6.806;2022-07-29T05:06:23;96619.69;;;13.75;100.00
46614;BME280;32338;50.430;6.806;2022-07-29T05:08:50;96624.16;;;13.81;100.00
46614;BME280;32338;50.430;6.806;2022-07-29T05:11:17;96629.78;;;13.98;100.00
46614;BME280;32338;50.430;6.806;2022-07-29T05:13:43;96642.34;;;14.16;96.87
46614;BME280;32338;50.430;6.806;2022-07-29T05:16:10;96643.03;;;14.37;96.78
46614;BME280;32338;50.430;6.806;2022-07-29T05:18:36;96636.59;;;14.51;94.76
46614;BME280;32338;50.430;6.806;2022-07-29T05:21:04;96638.31;;;14.64;94.84
46614;BME280;32338;50.430;6.806;2022-07-29T05:23:31;96642.53;;;14.79;93.78
46614;BME280;32338;50.430;6.806;2022-07-29T05:25:58;96640.84;;;14.84;92.73
46614;BME280;32338;50.430;6.806;2022-07-29T05:28:24;96645.88;;;14.93;93.88
46614;BME280;32338;50.430;6.806;2022-07-29T05:30:51;96635.56;;;15.03;93.35
46614;BME280;32338;50.430;6.806;2022-07-29T05:33:17;96637.03;;;14.99;90.08
46614;BME280;32338;50.430;6.806;2022-07-29T05:35:44;96642.28;;;15.05;89.90
46614;BME280;32338;50.430;6.806;2022-07-29T05:38:12;96644.72;;;15.07;89.81
46614;BME280;32338;50.430;6.806;2022-07-29T05:40:38;96643.25;;;15.11;88.92
46614;BME280;32338;50.430;6.806;2022-07-29T05:43:05;96643.84;;;15.13;91.32
46614;BME280;32338;50.430;6.806;2022-07-29T05:45:32;96656.34;;;15.13;94.61
46614;BME280;32338;50.430;6.806;2022-07-29T05:47:58;96650.19;;;15.12;93.86
46614;BME280;32338;50.430;6.806;2022-07-29T05:50:25;96654.69;;;15.12;96.37
46614;BME280;32338;50.430;6.806;2022-07-29T05:52:52;96654.06;;;15.16;95.79
46614;BME280;32338;50.430;6.806;2022-07-29T05:55:20;96655.31;;;15.14;96.50
46614;BME280;32338;50.430;6.806;2022-07-29T05:57:46;96653.03;;;15.17;96.68
46614;BME280;32338;50.430;6.806;2022-07-29T06:00:15;96655.84;;;15.22;92.24
46614;BME280;32338;50.430;6.806;2022-07-29T06:02:41;96652.22;;;15.35;91.62
46614;BME280;32338;50.430;6.806;2022-07-29T06:05:08;96651.38;;;15.53;93.49
46614;BME280;32338;50.430;6.806;2022-07-29T06:07:34;96653.63;;;15.56;87.42
46614;BME280;32338;50.430;6.806;2022-07-29T06:10:01;96656.78;;;15.65;85.85
46614;BME280;32338;50.430;6.806;2022-07-29T06:12:29;96662.16;;;15.77;84.62
46614;BME280;32338;50.430;6.806;2022-07-29T06:14:56;96662.50;;;15.87;84.81
46614;BME280;32338;50.430;6.806;2022-07-29T06:17:23;96662.91;;;16.03;86.51
46614;BME280;32338;50.430;6.806;2022-07-29T06:19:49;96656.00;;;16.14;84.72
46614;BME280;32338;50.430;6.806;2022-07-29T06:22:16;96667.16;;;16.23;82.79
46614;BME280;32338;50.430;6.806;2022-07-29T06:24:43;96665.28;;;16.23;82.70
46614;BME280;32338;50.430;6.806;2022-07-29T06:27:10;96663.00;;;16.27;85.41
46614;BME280;32338;50.430;6.806;2022-07-29T06:29:38;96673.09;;;16.36;86.71
46614;BME280;32338;50.430;6.806;2022-07-29T06:32:05;96664.19;;;16.43;83.72
46614;BME280;32338;50.430;6.806;2022-07-29T06:34:32;96670.94;;;16.57;83.88
46614;BME280;32338;50.430;6.806;2022-07-29T06:36:58;96668.63;;;16.49;79.88
46614;BME280;32338;50.430;6.806;2022-07-29T06:39:25;96671.53;;;16.71;83.74
46614;BME280;32338;50.430;6.806;2022-07-29T06:41:51;96671.19;;;16.56;82.18
46614;BME280;32338;50.430;6.806;2022-07-29T06:44:19;96666.88;;;16.54;83.70
46614;BME280;32338;50.430;6.806;2022-07-29T06:46:47;96669.41;;;16.49;81.20
46614;BME280;32338;50.430;6.806;2022-07-29T06:49:15;96668.94;;;16.52;84.11
46614;BME280;32338;50.430;6.806;2022-07-29T06:51:41;96667.47;;;16.57;84.35
46614;BME280;32338;50.430;6.806;2022-07-29T06:54:08;96675.22;;;16.46;80.41
46614;BME280;32338;50.430;6.806;2022-07-29T06:56:35;96675.78;;;16.48;83.46
46614;BME280;32338;50.430;6.806;2022-07-29T06:59:02;96668.94;;;16.52;83.24
46614;BME280;32338;50.430;6.806;2022-07-29T07:01:29;96677.53;;;16.43;81.00
46614;BME280;32338;50.430;6.806;2022-07-29T07:03:57;96669.06;;;16.46;82.85
46614;BME280;32338;50.430;6.806;2022-07-29T07:06:24;96673.66;;;16.38;80.75
46614;BME280;32338;50.430;6.806;2022-07-29T07:08:50;96674.50;;;16.39;81.78
46614;BME280;32338;50.430;6.806;2022-07-29T07:11:17;96676.56;;;16.37;81.91
46614;BME280;32338;50.430;6.806;2022-07-29T07:13:43;96676.56;;;16.37;82.95
46614;BME280;32338;50.430;6.806;2022-07-29T07:16:10;96679.00;;;16.38;84.02
46614;BME280;32338;50.430;6.806;2022-07-29T07:18:36;96667.41;;;16.33;80.91
46614;BME280;32338;50.430;6.806;2022-07-29T07:21:04;96674.00;;;16.30;80.79
46614;BME280;32338;50.430;6.806;2022-07-29T07:23:31;96671.59;;;16.41;83.41
46614;BME280;32338;50.430;6.806;2022-07-29T07:25:58;96676.38;;;16.50;78.93
46614;BME280;32338;50.430;6.806;2022-07-29T07:28:24;96676.50;;;16.56;78.38
46614;BME280;32338;50.430;6.806;2022-07-29T07:30:51;96679.34;;;16.73;79.84
46614;BME280;32338;50.430;6.806;2022-07-29T07:33:18;96674.75;;;16.92;77.92
46614;BME280;32338;50.430;6.806;2022-07-29T07:35:44;96681.59;;;16.99;77.99
46614;BME280;32338;50.430;6.806;2022-07-29T07:38:12;96679.38;;;17.20;78.21
46614;BME280;32338;50.430;6.806;2022-07-29T07:40:40;96679.47;;;17.37;77.74
46614;BME280;32338;50.430;6.806;2022-07-29T07:43:06;96677.63;;;17.49;77.43
46614;BME280;32338;50.430;6.806;2022-07-29T07:45:33;96677.47;;;17.68;78.27
46614;BME280;32338;50.430;6.806;2022-07-29T07:48:02;96675.47;;;17.75;75.30
46614;BME280;32338;50.430;6.806;2022-07-29T07:50:29;96678.97;;;17.76;71.73
46614;BME280;32338;50.430;6.806;2022-07-29T07:52:55;96666.44;;;17.64;70.84
46614;BME280;32338;50.430;6.806;2022-07-29T07:55:25;96666.19;;;17.66;73.96
46614;BME280;32338;50.430;6.806;2022-07-29T07:57:52;96670.69;;;17.77;74.08
46614;BME280;32338;50.430;6.806;2022-07-29T08:00:19;96670.78;;;17.82;72.02
46614;BME280;32338;50.430;6.806;2022-07-29T08:02:46;96671.81;;;17.93;73.10
46614;BME280;32338;50.430;6.806;2022-07-29T08:05:13;96675.69;;;17.86;70.92
46614;BME280;32338;50.430;6.806;2022-07-29T08:07:43;96671.03;;;17.93;73.07
46614;BME280;32338;50.430;6.806;2022-07-29T08:10:10;96671.94;;;17.98;71.29
46614;BME280;32338;50.430;6.806;2022-07-29T08:12:38;96675.72;;;18.14;71.67
46614;BME280;32338;50.430;6.806;2022-07-29T08:15:06;96683.13;;;18.24;71.76
46614;BME280;32338;50.430;6.806;2022-07-29T08:17:33;96680.38;;;18.36;72.30
46614;BME280;32338;50.430;6.806;2022-07-29T08:19:59;96680.00;;;18.44;68.85
46614;BME280;32338;50.430;6.806;2022-07-29T08:22:26;96678.13;;;18.45;69.26
46614;BME280;32338;50.430;6.806;2022-07-29T08:24:53;96681.72;;;18.51;69.36
46614;BME280;32338;50.430;6.806;2022-07-29T08:27:21;96671.91;;;18.56;70.47
46614;BME280;32338;50.430;6.806;2022-07-29T08:29:49;96676.38;;;18.68;68.73
46614;BME280;32338;50.430;6.806;2022-07-29T08:32:15;96679.13;;;18.73;67.59
46614;BME280;32338;50.430;6.806;2022-07-29T08:34:42;96665.19;;;18.88;71.02
46614;BME280;32338;50.430;6.806;2022-07-29T08:37:11;96670.25;;;19.01;67.76
46614;BME280;32338;50.430;6.806;2022-07-29T08:39:38;96676.06;;;19.15;66.30
46614;BME280;32338;50.430;6.806;2022-07-29T08:42:05;96672.16;;;19.23;63.82
46614;BME280;32338;50.430;6.806;2022-07-29T08:44:32;96673.84;;;19.29;62.62
46614;BME280;32338;50.430;6.806;2022-07-29T08:47:01;96675.94;;;19.44;63.62
46614;BME280;32338;50.430;6.806;2022-07-29T08:49:27;96679.19;;;19.46;61.34
46614;BME280;32338;50.430;6.806;2022-07-29T08:51:55;96675.19;;;19.49;65.04
46614;BME280;32338;50.430;6.806;2022-07-29T08:54:23;96668.97;;;19.65;61.25
46614;BME280;32338;50.430;6.806;2022-07-29T08:56:50;96676.00;;;19.71;62.54
46614;BME280;32338;50.430;6.806;2022-07-29T08:59:19;96674.16;;;19.72;60.71
46614;BME280;32338;50.430;6.806;2022-07-29T09:01:46;96677.22;;;19.81;60.38
46614;BME280;32338;50.430;6.806;2022-07-29T09:04:15;96664.38;;;19.83;61.39
46614;BME280;32338;50.430;6.806;2022-07-29T09:06:45;96672.31;;;19.95;60.11
46614;BME280;32338;50.430;6.806;2022-07-29T09:09:13;96670.03;;;20.08;61.95
46614;BME280;32338;50.430;6.806;2022-07-29T09:11:40;96667.91;;;20.11;62.30
46614;BME280;32338;50.430;6.806;2022-07-29T09:14:07;96665.13;;;20.28;62.96
46614;BME280;32338;50.430;6.806;2022-07-29T09:16:44;96662.25;;;20.34;58.97
46614;BME280;32338;50.430;6.806;2022-07-29T09:19:24;96666.91;;;20.44;60.51
46614;BME280;32338;50.430;6.806;2022-07-29T09:21:52;96660.59;;;20.61;59.61
46614;BME280;32338;50.430;6.806;2022-07-29T09:27:12;96658.53;;;20.68;59.43
46614;BME280;32338;50.430;6.806;2022-07-29T09:29:44;96659.44;;;20.79;57.93
46614;BME280;32338;50.430;6.806;2022-07-29T09:32:11;96662.97;;;20.84;59.25
46614;BME280;32338;50.430;6.806;2022-07-29T09:34:39;96656.59;;;20.96;58.83
46614;BME280;32338;50.430;6.806;2022-07-29T09:37:06;96659.09;;;21.02;60.66
46614;BME280;32338;50.430;6.806;2022-07-29T09:39:35;96659.91;;;21.08;56.38
46614;BME280;32338;50.430;6.806;2022-07-29T09:42:04;96660.22;;;21.12;56.75
46614;BME280;32338;50.430;6.806;2022-07-29T09:44:44;96667.25;;;21.18;56.50
46614;BME280;32338;50.430;6.806;2022-07-29T09:47:12;96658.56;;;21.05;56.13
46614;BME280;32338;50.430;6.806;2022-07-29T09:50:01;96660.19;;;21.06;57.04
46614;BME280;32338;50.430;6.806;2022-07-29T09:52:29;96655.41;;;21.14;57.62
46614;BME280;32338;50.430;6.806;2022-07-29T09:55:04;96659.00;;;21.30;57.32
46614;BME280;32338;50.430;6.806;2022-07-29T09:57:31;96655.91;;;21.53;56.69
46614;BME280;32338;50.430;6.806;2022-07-29T09:59:59;96654.41;;;21.78;56.34
46614;BME280;32338;50.430;6.806;2022-07-29T10:02:30;96664.38;;;21.83;56.06
46614;BME280;32338;50.430;6.806;2022-07-29T10:04:57;96652.34;;;22.01;56.57
46614;BME280;32338;50.430;6.806;2022-07-29T10:07:26;96651.78;;;21.94;55.20
46614;BME280;32338;50.430;6.806;2022-07-29T10:09:54;96656.88;;;21.90;54.01
46614;BME280;32338;50.430;6.806;2022-07-29T10:12:22;96666.81;;;21.90;52.57
46614;BME280;32338;50.430;6.806;2022-07-29T10:14:50;96666.78;;;21.84;53.22
46614;BME280;32338;50.430;6.806;2022-07-29T10:17:17;96653.13;;;21.91;53.62
46614;BME280;32338;50.430;6.806;2022-07-29T10:19:44;96649.88;;;21.89;52.10
46614;BME280;32338;50.430;6.806;2022-07-29T10:22:11;96649.84;;;21.79;53.53
46614;BME280;32338;50.430;6.806;2022-07-29T10:24:39;96646.69;;;22.02;54.40
46614;BME280;32338;50.430;6.806;2022-07-29T10:27:08;96655.84;;;22.12;54.46
46614;BME280;32338;50.430;6.806;2022-07-29T10:29:35;96657.22;;;22.19;54.27
46614;BME280;32338;50.430;6.806;2022-07-29T10:32:29;96659.16;;;22.40;53.48
46614;BME280;32338;50.430;6.806;2022-07-29T10:35:08;96660.53;;;22.63;53.01
46614;BME280;32338;50.430;6.806;2022-07-29T10:37:55;96664.59;;;22.55;50.46
46614;BME280;32338;50.430;6.806;2022-07-29T10:40:34;96651.88;;;22.35;51.39
46614;BME280;32338;50.430;6.806;2022-07-29T10:43:25;96657.25;;;22.25;52.64
46614;BME280;32338;50.430;6.806;2022-07-29T10:45:56;96656.44;;;22.29;53.67
46614;BME280;32338;50.430;6.806;2022-07-29T10:48:23;96663.72;;;22.34;51.59
46614;BME280;32338;50.430;6.806;2022-07-29T10:50:57;96660.78;;;22.41;51.76
46614;BME280;32338;50.430;6.806;2022-07-29T10:53:45;96653.25;;;22.58;53.24
46614;BME280;32338;50.430;6.806;2022-07-29T10:56:25;96654.63;;;22.76;51.12
46614;BME280;32338;50.430;6.806;2022-07-29T10:59:25;96658.66;;;22.89;49.72
46614;BME280;32338;50.430;6.806;2022-07-29T11:01:54;96659.19;;;23.02;50.26
46614;BME280;32338;50.430;6.806;2022-07-29T11:04:59;96657.31;;;23.12;49.10
46614;BME280;32338;50.430;6.806;2022-07-29T11:07:26;96661.88;;;23.17;49.04
46614;BME280;32338;50.430;6.806;2022-07-29T11:10:19;96654.88;;;23.26;50.25
46614;BME280;32338;50.430;6.806;2022-07-29T11:12:48;96653.22;;;23.36;49.66
46614;BME280;32338;50.430;6.806;2022-07-29T11:15:17;96650.81;;;23.34;48.84
46614;BME280;32338;50.430;6.806;2022-07-29T11:18:07;96656.22;;;23.24;48.10
46614;BME280;32338;50.430;6.806;2022-07-29T11:20:37;96649.47;;;23.31;48.89
46614;BME280;32338;50.430;6.806;2022-07-29T11:23:22;96644.59;;;23.44;48.21
46614;BME280;32338;50.430;6.806;2022-07-29T11:26:13;96650.50;;;23.41;48.81
46614;BME280;32338;50.430;6.806;2022-07-29T11:28:50;96652.88;;;23.63;51.13
46614;BME280;32338;50.430;6.806;2022-07-29T11:31:19;96649.94;;;23.54;48.52
46614;BME280;32338;50.430;6.806;2022-07-29T11:33:47;96653.13;;;23.72;51.94
46614;BME280;32338;50.430;6.806;2022-07-29T11:36:14;96651.19;;;23.83;49.74
46614;BME280;32338;50.430;6.806;2022-07-29T11:38:41;96660.31;;;23.97;48.59
46614;BME280;32338;50.430;6.806;2022-07-29T11:41:24;96648.59;;;24.17;48.90
46614;BME280;32338;50.430;6.806;2022-07-29T11:43:55;96645.25;;;24.36;48.38
46614;BME280;32338;50.430;6.806;2022-07-29T11:46:44;96644.63;;;24.49;47.14
46614;BME280;32338;50.430;6.806;2022-07-29T11:49:11;96647.13;;;24.75;49.35
46614;BME280;32338;50.430;6.806;2022-07-29T11:51:39;96645.34;;;24.95;47.76
46614;BME280;32338;50.430;6.806;2022-07-29T11:54:10;96641.00;;;24.99;45.91
46614;BME280;32338;50.430;6.806;2022-07-29T11:56:41;96646.38;;;24.99;47.62
46614;BME280;32338;50.430;6.806;2022-07-29T11:59:13;96650.41;;;25.31;46.33
46614;BME280;32338;50.430;6.806;2022-07-29T12:01:52;96645.19;;;25.88;45.32
46614;BME280;32338;50.430;6.806;2022-07-29T12:04:18;96646.09;;;25.59;44.02
46614;BME280;32338;50.430;6.806;2022-07-29T12:06:49;96656.75;;;25.50;43.92
46614;BME280;32338;50.430;6.806;2022-07-29T12:09:16;96654.94;;;25.40;45.26
46614;BME280;32338;50.430;6.806;2022-07-29T12:11:43;96653.88;;;25.41;46.07
46614;BME280;32338;50.430;6.806;2022-07-29T12:14:25;96656.59;;;25.07;44.28
46614;BME280;32338;50.430;6.806;2022-07-29T12:16:52;96655.97;;;24.86;46.62
46614;BME280;32338;50.430;6.806;2022-07-29T12:19:19;96650.72;;;24.70;46.24
46614;BME280;32338;50.430;6.806;2022-07-29T12:21:46;96653.91;;;24.72;48.08
46614;BME280;32338;50.430;6.806;2022-07-29T12:24:13;96651.22;;;24.72;47.35
46614;BME280;32338;50.430;6.806;2022-07-29T12:26:49;96653.75;;;24.93;46.49
46614;BME280;32338;50.430;6.806;2022-07-29T12:29:16;96651.53;;;25.00;45.58
46614;BME280;32338;50.430;6.806;2022-07-29T12:31:44;96652.94;;;25.22;45.24
46614;BME280;32338;50.430;6.806;2022-07-29T12:34:12;96654.38;;;25.14;46.92
46614;BME280;32338;50.430;6.806;2022-07-29T12:36:41;96654.78;;;25.27;46.16
46614;BME280;32338;50.430;6.806;2022-07-29T12:39:08;96655.75;;;25.41;45.89
46614;BME280;32338;50.430;6.806;2022-07-29T12:41:35;96666.81;;;25.15;46.37
46614;BME280;32338;50.430;6.806;2022-07-29T12:44:02;96656.88;;;25.05;45.56
46614;BME280;32338;50.430;6.806;2022-07-29T12:46:29;96657.53;;;24.92;47.73
46614;BME280;32338;50.430;6.806;2022-07-29T12:48:57;96652.19;;;24.87;47.11
46614;BME280;32338;50.430;6.806;2022-07-29T12:51:31;96652.28;;;25.06;46.27
46614;BME280;32338;50.430;6.806;2022-07-29T12:54:06;96658.97;;;25.14;46.78
46614;BME280;32338;50.430;6.806;2022-07-29T12:56:34;96663.56;;;25.13;46.99
46614;BME280;32338;50.430;6.806;2022-07-29T12:59:11;96660.50;;;24.96;44.09
46614;BME280;32338;50.430;6.806;2022-07-29T13:01:38;96658.69;;;25.45;47.10
46614;BME280;32338;50.430;6.806;2022-07-29T13:04:06;96653.75;;;25.22;46.17
46614;BME280;32338;50.430;6.806;2022-07-29T13:06:36;96660.34;;;25.65;47.26
46614;BME280;32338;50.430;6.806;2022-07-29T13:09:05;96655.66;;;25.95;44.74
46614;BME280;32338;50.430;6.806;2022-07-29T13:11:34;96655.66;;;26.38;44.30
46614;BME280;32338;50.430;6.806;2022-07-29T13:14:01;96653.38;;;26.07;43.37